Arnoldsville, Georgia
Current Conditions -  °F | °C
As of 12:51 PM on Thursday 29 Jan 2015 (Local Time) from KAHN Reporting Station
Clear Clear  
Wind Chill: 12°   Ceiling: Unl
Heat Index: 12°   Visibility: 10mi
Dew Point: -4°   Wind: 7mph
Humidity: 34%   Direction: 210°SSW
Pressure: 30.24"   Gusts: NA
Location:  33.91°N, 83.22°W
Report Text: KAHN 291751Z 21006KT 10SM CLR 12/M04 A3024 RMK AO2 SLP246 T01171039 10117 21022 58028
Loading
Personal Weather Stations






























Interactive Weather Map New forecast layout! Learn more

10-Day Weather Forecast

Advertisements
Track Severe Weather on mobile